Latest Weather Observations for Mount Crawford

IDS60801

Issued at 5:51 pm CST Thursday 9 April 2020 (issued every 10 minutes, with the page automatically refreshed every 10 minutes)

About weather observations | Map of weather stations | Latest weather observations for SA | Other Formats
Station Details ID: 023878 Name: MOUNT CRAWFORD AWS Lat: -34.73 Lon: 138.93 Height: 525.0 m
Data from the previous 72 hours. | See also: Recent months at Mount Crawford
Date/Time
CST
Temp
°C
App
Temp
°C
Dew
Point
°C
Rel
Hum
%
Delta-T
°C
Wind Press
QNH
hPa
Press
MSL
hPa
Rain since
9am
mm
Dir  Spd
km/h
Gust
km/h
Spd
kts
Gust
kts
09/05:30pm 17.2 14.9 7.3 52 5.1 ESE 9 13 5 7 1021.5 1020.5 0.0
09/05:00pm 17.9 14.8 7.3 50 5.5 ESE 13 15 7 8 1021.5 1020.5 0.0
09/04:30pm 18.6 16.4 7.7 49 5.7 ESE 9 15 5 8 1021.4 1020.4 0.0
09/04:00pm 17.7 13.8 7.2 50 5.4 ESE 17 20 9 11 1021.4 1020.4 0.0
09/03:30pm 19.8 16.3 7.2 44 6.6 E 15 22 8 12 1021.5 1020.5 0.0
09/03:00pm 19.6 16.4 6.7 43 6.6 NE 13 20 7 11 1021.6 1020.6 0.0
09/02:30pm 20.4 17.7 7.4 43 6.8 N 11 20 6 11 1021.8 1020.8 0.0
09/02:00pm 18.8 15.4 6.0 43 6.5 NNE 13 20 7 11 1021.8 1020.8 0.0
09/01:30pm 19.5 16.4 7.3 45 6.3 NE 13 24 7 13 1022.5 1021.6 0.0
09/01:00pm 18.5 15.1 6.0 44 6.3 ESE 13 19 7 10 1022.8 1021.9 0.0
09/12:30pm 18.8 15.5 7.9 49 5.7 E 15 28 8 15 1023.3 1022.3 0.0
09/12:00pm 17.2 14.1 7.3 52 5.1 E 13 24 7 13 1023.8 1022.8 0.0
09/11:30am 16.9 13.9 7.8 55 4.7 ESE 13 20 7 11 1024.1 1023.2 0.0
09/11:00am 15.9 12.0 8.6 62 3.8 E 19 28 10 15 1024.4 1023.5 0.0
09/10:30am 16.0 13.4 9.2 64 3.6 ESE 13 20 7 11 1024.5 1023.6 0.0
09/10:00am 15.3 12.6 9.0 66 3.3 E 13 20 7 11 1024.8 1023.9 0.0
09/09:30am 13.9 11.2 8.9 72 2.6 ESE 13 19 7 10 1025.0 1024.1 0.0
09/09:00am 13.5 11.5 10.3 81 1.7 E 11 13 6 7 1025.0 1024.1 0.2
09/08:30am 11.5 8.9 9.4 87 1.1 ESE 13 15 7 8 1025.2 1024.2 0.2
09/08:00am 10.5 7.5 9.1 91 0.7 ESE 15 19 8 10 1025.3 1024.3 0.2
09/07:30am 8.6 4.3 7.7 94 0.4 ESE 20 24 11 13 1025.0 1024.1 0.2
09/07:00am 8.7 4.6 7.8 94 0.4 ESE 19 20 10 11 1024.9 1024.0 0.2
09/06:30am 8.5 5.1 7.6 94 0.4 ESE 15 19 8 10 1024.8 1023.9 0.2
09/06:00am 8.9 6.0 8.1 95 0.4 ESE 13 15 7 8 1024.6 1023.7 0.2
09/05:30am 8.9 6.0 8.3 96 0.3 ESE 13 17 7 9 1024.4 1023.5 0.2
09/05:00am 8.6 5.3 8.2 97 0.2 SE 15 19 8 10 1024.2 1023.3 0.2
09/04:30am 8.7 5.1 8.4 98 0.1 SE 17 20 9 11 1024.1 1023.2 0.0
09/04:00am 8.6 4.6 8.3 98 0.1 SE 19 22 10 12 1024.2 1023.3 0.0
09/03:30am 8.7 4.7 8.4 98 0.1 SE 19 22 10 12 1024.1 1023.2 0.0
09/03:00am 8.8 4.7 8.5 98 0.1 SE 20 26 11 14 1024.2 1023.3 0.0
09/02:30am 8.9 4.0 8.6 98 0.1 SE 24 32 13 17 1024.2 1023.3 0.0
09/02:00am 9.2 4.4 8.7 97 0.3 ESE 24 30 13 16 1024.2 1023.3 0.0
09/01:30am 9.4 5.0 8.9 97 0.3 ESE 22 32 12 17 1024.4 1023.5 0.0
09/01:00am 9.8 5.1 9.3 97 0.3 SE 24 33 13 18 1024.4 1023.5 0.0
09/12:30am 10.1 4.8 9.8 98 0.2 SE 28 37 15 20 1024.3 1023.4 0.0
09/12:00am 10.4 5.5 10.1 98 0.2 SE 26 33 14 18 1024.2 1023.3 0.0
 
Date/Time
CST
Temp
°C
App
Temp
°C
Dew
Point
°C
Rel
Hum
%
Delta-T
°C
Wind Press
QNH
hPa
Press
MSL
hPa
Rain since
9am
mm
Dir  Spd
km/h
Gust
km/h
Spd
kts
Gust
kts
08/11:30pm 10.5 6.0 10.2 98 0.2 SE 24 33 13 18 1024.5 1023.6 0.0
08/11:00pm 10.4 4.7 9.9 97 0.3 SE 30 41 16 22 1024.4 1023.5 0.0
08/10:30pm 10.3 5.3 9.7 96 0.3 SE 26 35 14 19 1024.6 1023.7 0.0
08/10:00pm 10.4 6.2 9.6 95 0.4 ESE 22 32 12 17 1024.5 1023.6 0.0
08/09:30pm 10.4 6.2 9.6 95 0.4 SE 22 33 12 18 1024.6 1023.7 0.0
08/09:00pm 10.4 6.5 9.6 95 0.4 SE 20 32 11 17 1024.5 1023.6 0.0
08/08:30pm 10.6 6.8 9.7 94 0.5 SE 20 32 11 17 1024.2 1023.3 0.0
08/08:00pm 10.6 6.0 9.5 93 0.6 SE 24 33 13 18 1024.2 1023.3 0.0
08/07:30pm 10.5 6.5 8.9 90 0.8 SE 20 32 11 17 1023.9 1022.9 0.0
08/07:00pm 11.0 7.2 8.9 87 1.1 SE 19 28 10 15 1023.6 1022.6 0.0
08/06:30pm 11.5 7.9 8.5 82 1.5 SE 17 26 9 14 1023.5 1022.5 0.0
08/06:00pm 12.3 8.0 8.0 75 2.2 SE 20 30 11 16 1023.4 1022.4 0.0
08/05:30pm 13.5 9.6 7.3 66 3.1 SE 17 24 9 13 1023.2 1022.2 0.0
08/05:00pm 14.6 10.2 6.7 59 3.9 SE 19 30 10 16 1022.9 1022.0 0.0
08/04:30pm 15.1 10.1 6.4 56 4.3 SE 22 32 12 17 1022.7 1021.8 0.0
08/04:00pm 15.4 10.3 5.9 53 4.7 ESE 22 32 12 17 1022.6 1021.7 0.0
08/03:30pm 15.9 11.2 6.1 52 4.9 ESE 20 33 11 18 1022.6 1021.7 0.0
08/03:00pm 15.4 10.6 5.6 52 4.8 ESE 20 32 11 17 1022.9 1022.0 0.0
08/02:30pm 15.8 11.2 5.7 51 5.0 SE 19 33 10 18 1022.9 1022.0 0.0
08/02:00pm 15.4 10.8 5.6 52 4.8 SE 19 26 10 14 1023.2 1022.2 0.0
08/01:30pm 14.8 10.4 6.4 57 4.2 SE 19 30 10 16 1023.3 1022.3 0.0
08/01:00pm 14.8 11.2 6.6 58 4.1 SE 15 24 8 13 1023.8 1022.8 0.0
08/12:30pm 13.7 9.7 6.6 62 3.5 SE 17 30 9 16 1024.2 1023.3 0.0
08/12:00pm 13.6 9.1 6.2 61 3.6 SE 19 28 10 15 1024.5 1023.6 0.0
08/11:30am 13.5 9.1 6.6 63 3.4 ESE 19 26 10 14 1024.6 1023.7 0.0
08/11:00am 13.0 9.1 7.0 67 3.0 SE 17 28 9 15 1024.8 1023.9 0.0
08/10:30am 11.7 6.3 6.4 70 2.6 ESE 24 33 13 18 1025.0 1024.1 0.0
08/10:00am 11.3 4.7 6.0 70 2.5 ESE 30 39 16 21 1024.9 1024.0 0.0
08/09:30am 11.1 5.0 6.5 73 2.2 ESE 28 37 15 20 1025.0 1024.1 0.0
08/09:00am 10.5 4.3 6.3 75 2.0 ESE 28 39 15 21 1024.9 1024.0 0.0
08/08:30am 9.7 3.3 7.0 83 1.3 ESE 30 37 16 20 1024.5 1023.6 0.0
08/08:00am 9.1 3.1 6.9 86 1.1 ESE 28 35 15 19 1024.2 1023.3 0.0
08/07:30am 8.0 2.3 6.5 90 0.7 ESE 26 35 14 19 1023.8 1022.8 0.0
08/07:00am 7.4 1.6 6.2 92 0.6 ESE 26 32 14 17 1023.5 1022.5 0.0
08/06:30am 7.4 1.1 5.9 90 0.7 ESE 28 35 15 19 1023.0 1022.1 0.0
08/06:00am 7.5 1.3 6.0 90 0.7 ESE 28 35 15 19 1022.9 1022.0 0.0
08/05:30am 7.5 0.9 6.1 91 0.7 ESE 30 39 16 21 1022.7 1021.8 0.0
08/05:00am 7.6 1.1 6.4 92 0.6 SE 30 39 16 21 1022.5 1021.6 0.0
08/04:30am 7.8 1.6 6.1 89 0.8 ESE 28 35 15 19 1022.4 1021.5 0.0
08/04:00am 8.2 2.0 6.0 86 1.0 ESE 28 33 15 18 1022.2 1021.2 0.0
08/03:30am 8.3 2.5 6.3 87 0.9 ESE 26 33 14 18 1022.2 1021.2 0.0
08/03:00am 8.7 2.5 6.3 85 1.1 ESE 28 35 15 19 1022.3 1021.3 0.0
08/02:30am 8.6 2.9 6.6 87 1.0 ESE 26 33 14 18 1022.3 1021.3 0.0
08/02:00am 8.8 3.1 6.9 88 0.9 ESE 26 32 14 17 1022.5 1021.6 0.0
08/01:30am 9.0 3.9 7.5 90 0.7 ESE 24 30 13 16 1022.7 1021.8 0.0
08/01:00am 9.4 4.0 8.0 91 0.7 ESE 26 35 14 19 1022.7 1021.8 0.0
08/12:30am 9.6 4.7 8.5 93 0.5 SE 24 35 13 19 1022.4 1021.5 0.0
08/12:00am 9.9 5.1 8.8 93 0.6 SE 24 33 13 18 1022.3 1021.3 0.0
 
Date/Time
CST
Temp
°C
App
Temp
°C
Dew
Point
°C
Rel
Hum
%
Delta-T
°C
Wind Press
QNH
hPa
Press
MSL
hPa
Rain since
9am
mm
Dir  Spd
km/h
Gust
km/h
Spd
kts
Gust
kts
07/11:30pm 10.0 4.8 8.8 92 0.6 SE 26 35 14 19 1022.4 1021.5 0.0
07/11:00pm 10.1 5.7 8.9 92 0.6 SE 22 32 12 17 1022.6 1021.7 0.0
07/10:30pm 10.4 5.7 9.2 92 0.6 SE 24 32 13 17 1022.9 1022.0 0.0
07/10:00pm 10.4 4.9 9.3 93 0.6 SSE 28 39 15 21 1022.9 1022.0 0.0
07/09:30pm 10.5 5.4 9.3 92 0.6 SE 26 33 14 18 1022.8 1021.9 0.0
07/09:00pm 10.4 4.9 9.0 91 0.7 SSE 28 33 15 18 1022.5 1021.6 0.0
07/08:30pm 10.5 6.1 8.9 90 0.8 SE 22 30 12 16 1022.5 1021.6 0.0
07/08:00pm 10.9 6.3 9.5 91 0.7 SE 24 32 13 17 1022.2 1021.2 0.0
07/07:30pm 11.4 7.3 10.0 91 0.7 SE 22 28 12 15 1022.2 1021.2 0.0
07/07:00pm 11.8 8.1 10.0 89 0.9 SE 20 28 11 15 1021.9 1020.9 0.0
07/06:30pm 12.3 8.6 10.0 86 1.2 SE 20 28 11 15 1021.7 1020.7 0.0
07/06:00pm 12.8 8.8 10.5 86 1.2 SSE 22 30 12 16 1021.5 1020.5 0.0
07/05:30pm 13.3 9.6 10.1 81 1.7 SE 20 26 11 14 1021.3 1020.3 0.0
07/05:00pm 14.4 10.8 10.4 77 2.2 SE 20 26 11 14 1021.0 1020.1 0.0
07/04:30pm 14.9 11.9 10.5 75 2.4 SE 17 24 9 13 1020.9 1020.0 0.0
07/04:00pm 15.4 12.7 10.4 72 2.7 SE 15 22 8 12 1021.0 1020.1 0.0
07/03:30pm 15.5 12.5 9.4 67 3.2 ESE 15 20 8 11 1021.3 1020.3 0.0
07/03:00pm 15.3 12.5 10.1 71 2.8 ESE 15 20 8 11 1021.5 1020.5 0.0
07/02:30pm 15.2 12.0 10.0 71 2.8 SE 17 24 9 13 1021.7 1020.7 0.0
07/02:00pm 16.0 14.2 9.4 65 3.5 S 9 17 5 9 1021.7 1020.7 0.0
07/01:30pm 16.4 15.0 9.6 64 3.6 SW 7 13 4 7 1021.8 1020.8 0.0
07/01:00pm 15.6 13.7 9.1 65 3.4 W 9 13 5 7 1022.3 1021.3 0.0
07/12:30pm 15.3 12.6 9.0 66 3.3 W 13 17 7 9 1022.7 1021.8 0.0
07/12:00pm 15.6 13.2 8.8 64 3.6 W 11 17 6 9 1022.9 1022.0 0.0
07/11:30am 15.7 13.7 8.7 63 3.7 W 9 15 5 8 1023.2 1022.2 0.0
07/11:00am 15.8 13.5 9.0 64 3.6 W 11 15 6 8 1023.3 1022.3 0.0
07/10:30am 15.0 13.0 8.7 66 3.3 WSW 9 17 5 9 1023.3 1022.3 0.0
07/10:00am 15.7 13.8 9.1 65 3.5 NNW 9 15 5 8 1023.5 1022.5 0.0
07/09:30am 15.1 13.7 9.5 69 3.0 N 7 11 4 6 1023.8 1022.8 0.0
07/09:00am 13.6 11.5 8.4 71 2.7 NE 9 11 5 6 1023.8 1022.8 0.0
07/08:30am 12.5 10.8 8.4 76 2.1 NE 7 9 4 5 1023.6 1022.6 0.0
07/08:00am 11.5 9.4 8.2 80 1.7 ENE 9 11 5 6 1023.4 1022.4 0.0
07/07:30am 10.9 8.5 8.5 85 1.2 ENE 11 13 6 7 1022.9 1022.0 0.0
07/07:00am 10.6 8.2 8.7 88 1.0 E 11 13 6 7 1022.5 1021.6 0.0
07/06:30am 10.4 7.8 9.2 92 0.6 E 13 17 7 9 1022.3 1021.3 0.0
07/06:00am 10.3 7.7 9.2 93 0.6 E 13 17 7 9 1022.3 1021.3 0.0
07/05:30am 10.3 7.3 9.2 93 0.6 ESE 15 19 8 10 1022.0 1021.0 0.0
07/05:00am 10.4 7.1 9.5 94 0.5 ESE 17 20 9 11 1021.9 1020.9 0.0
07/04:30am 10.3 7.1 9.8 97 0.3 ESE 17 19 9 10 1021.7 1020.7 0.0
07/04:00am 10.0 6.4 9.7 98 0.2 ESE 19 22 10 12 1021.5 1020.5 0.0
07/03:30am 10.0 6.2 9.7 98 0.2 ESE 20 22 11 12 1021.6 1020.6 0.0
07/03:00am 10.2 7.0 9.9 98 0.2 ESE 17 20 9 11 1021.8 1020.8 0.0
07/02:30am 10.3 6.7 10.0 98 0.2 ESE 19 22 10 12 1021.9 1020.9 0.0
07/02:00am 10.4 6.9 10.1 98 0.2 ESE 19 22 10 12 1021.9 1020.9 0.0
07/01:30am 10.5 6.9 10.0 97 0.3 ESE 19 22 10 12 1022.1 1021.1 0.0
07/01:00am 10.7 7.2 10.1 96 0.3 ESE 19 22 10 12 1022.3 1021.3 0.0
07/12:30am 10.9 7.7 10.1 95 0.4 ESE 17 20 9 11 1022.4 1021.5 0.0
07/12:00am 11.1 8.0 10.2 94 0.5 ESE 17 22 9 12 1022.5 1021.6 0.0
 
Date/Time
CST
Temp
°C
App
Temp
°C
Dew
Point
°C
Rel
Hum
%
Delta-T
°C
Wind Press
QNH
hPa
Press
MSL
hPa
Rain since
9am
mm
Dir  Spd
km/h
Gust
km/h
Spd
kts
Gust
kts
06/11:30pm 11.1 7.9 10.0 93 0.6 ESE 17 19 9 10 1022.8 1021.9 0.0
06/11:00pm 11.2 8.0 10.0 92 0.6 ESE 17 20 9 11 1022.9 1022.0 0.0
06/10:30pm 11.3 7.6 9.6 89 0.9 ESE 19 22 10 12 1022.9 1022.0 0.0
06/10:00pm 11.7 8.4 9.4 86 1.2 ESE 17 22 9 12 1023.2 1022.2 0.0
06/09:30pm 11.8 8.5 9.5 86 1.2 ESE 17 20 9 11 1023.0 1022.1 0.0
06/09:00pm 12.0 8.7 9.6 85 1.2 ESE 17 20 9 11 1022.9 1022.0 0.0
06/08:30pm 12.2 9.7 9.6 84 1.4 E 13 17 7 9 1022.8 1021.9 0.0
06/08:00pm 12.5 9.9 9.5 82 1.6 E 13 17 7 9 1022.7 1021.8 0.0
06/07:30pm 12.8 10.3 9.6 81 1.7 ESE 13 15 7 8 1022.5 1021.6 0.0
06/07:00pm 13.0 10.9 9.6 80 1.8 ESE 11 13 6 7 1022.4 1021.5 0.0
06/06:30pm 13.8 12.0 9.6 76 2.2 ESE 9 13 5 7 1022.2 1021.2 0.0
06/06:00pm 14.2 12.1 9.6 74 2.4 SE 11 13 6 7 1022.0 1021.0 0.0

Other formats

Comma delimited format used in spreadsheet applications
http://www.bom.gov.au/fwo/IDS60801/IDS60801.94678.axf

JavaScript Object Notation format (JSON) in row-major order
http://www.bom.gov.au/fwo/IDS60801/IDS60801.94678.json

Data quality

Most of these data are generated automatically and are frequently updated. Quality checks on data are not normally performed. It is possible for incorrect values to appear. Refer to information at About Latest Weather Observations and please check the disclaimer before using these data.